sensor_id;sensor_type;location;lat;lon;timestamp;P1;durP1;ratioP1;P2;durP2;ratioP2
23260;SDS011;11799;47.740;-3.390;2024-01-30T00:01:37;3.85;;;1.20;;
23260;SDS011;11799;47.740;-3.390;2024-01-30T00:04:03;5.32;;;1.15;;
23260;SDS011;11799;47.740;-3.390;2024-01-30T00:06:28;3.88;;;1.08;;
23260;SDS011;11799;47.740;-3.390;2024-01-30T00:08:54;4.13;;;0.98;;
23260;SDS011;11799;47.740;-3.390;2024-01-30T00:11:19;1.92;;;0.80;;
23260;SDS011;11799;47.740;-3.390;2024-01-30T00:13:46;3.92;;;1.05;;
23260;SDS011;11799;47.740;-3.390;2024-01-30T00:16:20;8.93;;;1.90;;
23260;SDS011;11799;47.740;-3.390;2024-01-30T00:18:47;2.80;;;0.82;;
23260;SDS011;11799;47.740;-3.390;2024-01-30T00:21:13;1.90;;;0.73;;
23260;SDS011;11799;47.740;-3.390;2024-01-30T00:23:41;1.20;;;0.60;;
23260;SDS011;11799;47.740;-3.390;2024-01-30T00:26:07;1.17;;;0.63;;
23260;SDS011;11799;47.740;-3.390;2024-01-30T00:28:32;5.15;;;0.75;;
23260;SDS011;11799;47.740;-3.390;2024-01-30T00:30:58;0.70;;;0.60;;
23260;SDS011;11799;47.740;-3.390;2024-01-30T00:33:23;2.75;;;0.70;;
23260;SDS011;11799;47.740;-3.390;2024-01-30T00:35:49;1.48;;;0.70;;
23260;SDS011;11799;47.740;-3.390;2024-01-30T00:38:14;2.70;;;0.80;;
23260;SDS011;11799;47.740;-3.390;2024-01-30T00:40:40;2.17;;;0.60;;
23260;SDS011;11799;47.740;-3.390;2024-01-30T00:43:06;2.92;;;0.60;;
23260;SDS011;11799;47.740;-3.390;2024-01-30T00:45:31;2.60;;;0.70;;
23260;SDS011;11799;47.740;-3.390;2024-01-30T00:47:57;0.52;;;0.52;;
23260;SDS011;11799;47.740;-3.390;2024-01-30T00:50:22;2.78;;;0.70;;
23260;SDS011;11799;47.740;-3.390;2024-01-30T00:52:48;1.05;;;0.70;;
23260;SDS011;11799;47.740;-3.390;2024-01-30T00:55:13;1.30;;;0.60;;
23260;SDS011;11799;47.740;-3.390;2024-01-30T00:57:39;2.85;;;0.60;;
23260;SDS011;11799;47.740;-3.390;2024-01-30T01:00:05;2.10;;;0.93;;
23260;SDS011;11799;47.740;-3.390;2024-01-30T01:02:34;3.65;;;0.77;;
23260;SDS011;11799;47.740;-3.390;2024-01-30T01:05:02;0.85;;;0.80;;
23260;SDS011;11799;47.740;-3.390;2024-01-30T01:07:28;2.85;;;0.60;;
23260;SDS011;11799;47.740;-3.390;2024-01-30T01:09:53;6.47;;;0.70;;
23260;SDS011;11799;47.740;-3.390;2024-01-30T01:12:19;2.85;;;0.60;;
23260;SDS011;11799;47.740;-3.390;2024-01-30T01:14:45;1.85;;;0.73;;
23260;SDS011;11799;47.740;-3.390;2024-01-30T01:17:10;1.20;;;0.52;;
23260;SDS011;11799;47.740;-3.390;2024-01-30T01:19:36;1.63;;;0.70;;
23260;SDS011;11799;47.740;-3.390;2024-01-30T01:22:01;2.03;;;0.70;;
23260;SDS011;11799;47.740;-3.390;2024-01-30T01:24:28;0.63;;;0.60;;
23260;SDS011;11799;47.740;-3.390;2024-01-30T01:26:55;1.80;;;0.68;;
23260;SDS011;11799;47.740;-3.390;2024-01-30T01:29:22;1.75;;;0.70;;
23260;SDS011;11799;47.740;-3.390;2024-01-30T01:31:54;1.88;;;0.60;;
23260;SDS011;11799;47.740;-3.390;2024-01-30T01:34:23;1.83;;;0.57;;
23260;SDS011;11799;47.740;-3.390;2024-01-30T01:36:49;1.77;;;0.60;;
23260;SDS011;11799;47.740;-3.390;2024-01-30T01:39:15;3.33;;;0.60;;
23260;SDS011;11799;47.740;-3.390;2024-01-30T01:41:41;1.20;;;0.73;;
23260;SDS011;11799;47.740;-3.390;2024-01-30T01:44:07;2.15;;;0.85;;
23260;SDS011;11799;47.740;-3.390;2024-01-30T01:46:33;2.40;;;0.68;;
23260;SDS011;11799;47.740;-3.390;2024-01-30T01:49:02;0.70;;;0.52;;
23260;SDS011;11799;47.740;-3.390;2024-01-30T01:51:31;5.28;;;1.05;;
23260;SDS011;11799;47.740;-3.390;2024-01-30T01:53:59;2.63;;;0.80;;
23260;SDS011;11799;47.740;-3.390;2024-01-30T01:56:28;4.10;;;0.73;;
23260;SDS011;11799;47.740;-3.390;2024-01-30T01:58:54;5.00;;;0.90;;
23260;SDS011;11799;47.740;-3.390;2024-01-30T02:01:21;1.83;;;0.70;;
23260;SDS011;11799;47.740;-3.390;2024-01-30T02:03:46;0.75;;;0.50;;
23260;SDS011;11799;47.740;-3.390;2024-01-30T02:06:13;1.00;;;0.50;;
23260;SDS011;11799;47.740;-3.390;2024-01-30T02:08:40;2.38;;;0.70;;
23260;SDS011;11799;47.740;-3.390;2024-01-30T02:11:05;1.50;;;0.60;;
23260;SDS011;11799;47.740;-3.390;2024-01-30T02:13:31;1.42;;;0.70;;
23260;SDS011;11799;47.740;-3.390;2024-01-30T02:15:56;2.42;;;0.95;;
23260;SDS011;11799;47.740;-3.390;2024-01-30T02:18:22;1.70;;;0.70;;
23260;SDS011;11799;47.740;-3.390;2024-01-30T02:20:48;2.92;;;0.70;;
23260;SDS011;11799;47.740;-3.390;2024-01-30T02:23:15;2.00;;;0.73;;
23260;SDS011;11799;47.740;-3.390;2024-01-30T02:25:41;1.48;;;0.80;;
23260;SDS011;11799;47.740;-3.390;2024-01-30T02:28:13;0.70;;;0.70;;
23260;SDS011;11799;47.740;-3.390;2024-01-30T02:30:39;1.33;;;0.80;;
23260;SDS011;11799;47.740;-3.390;2024-01-30T02:33:05;1.95;;;0.90;;
23260;SDS011;11799;47.740;-3.390;2024-01-30T02:35:30;3.67;;;0.93;;
23260;SDS011;11799;47.740;-3.390;2024-01-30T02:37:56;3.45;;;0.88;;
23260;SDS011;11799;47.740;-3.390;2024-01-30T02:40:21;0.80;;;0.80;;
23260;SDS011;11799;47.740;-3.390;2024-01-30T02:42:47;3.28;;;0.82;;
23260;SDS011;11799;47.740;-3.390;2024-01-30T02:45:13;2.15;;;1.00;;
23260;SDS011;11799;47.740;-3.390;2024-01-30T02:47:39;1.75;;;0.88;;
23260;SDS011;11799;47.740;-3.390;2024-01-30T02:50:05;1.98;;;0.98;;
23260;SDS011;11799;47.740;-3.390;2024-01-30T02:52:31;1.90;;;1.20;;
23260;SDS011;11799;47.740;-3.390;2024-01-30T02:54:57;4.20;;;0.95;;
23260;SDS011;11799;47.740;-3.390;2024-01-30T02:57:23;1.70;;;1.00;;
23260;SDS011;11799;47.740;-3.390;2024-01-30T02:59:49;2.75;;;0.90;;
23260;SDS011;11799;47.740;-3.390;2024-01-30T03:02:14;3.75;;;1.13;;
23260;SDS011;11799;47.740;-3.390;2024-01-30T03:04:43;1.02;;;0.90;;
23260;SDS011;11799;47.740;-3.390;2024-01-30T03:07:08;3.35;;;1.10;;
23260;SDS011;11799;47.740;-3.390;2024-01-30T03:09:34;1.95;;;1.00;;
23260;SDS011;11799;47.740;-3.390;2024-01-30T03:12:00;4.50;;;1.10;;
23260;SDS011;11799;47.740;-3.390;2024-01-30T03:14:26;4.45;;;0.93;;
23260;SDS011;11799;47.740;-3.390;2024-01-30T03:16:51;4.95;;;1.00;;
23260;SDS011;11799;47.740;-3.390;2024-01-30T03:19:17;5.60;;;1.30;;
23260;SDS011;11799;47.740;-3.390;2024-01-30T03:21:44;1.15;;;1.08;;
23260;SDS011;11799;47.740;-3.390;2024-01-30T03:24:09;2.63;;;1.10;;
23260;SDS011;11799;47.740;-3.390;2024-01-30T03:26:35;1.83;;;1.20;;
23260;SDS011;11799;47.740;-3.390;2024-01-30T03:29:00;1.85;;;1.13;;
23260;SDS011;11799;47.740;-3.390;2024-01-30T03:31:26;3.55;;;0.95;;
23260;SDS011;11799;47.740;-3.390;2024-01-30T03:33:52;1.85;;;0.88;;
23260;SDS011;11799;47.740;-3.390;2024-01-30T03:36:17;2.72;;;1.25;;
23260;SDS011;11799;47.740;-3.390;2024-01-30T03:38:43;1.55;;;1.02;;
23260;SDS011;11799;47.740;-3.390;2024-01-30T03:41:08;1.63;;;1.00;;
23260;SDS011;11799;47.740;-3.390;2024-01-30T03:43:35;3.13;;;1.35;;
23260;SDS011;11799;47.740;-3.390;2024-01-30T03:46:01;1.92;;;1.00;;
23260;SDS011;11799;47.740;-3.390;2024-01-30T03:48:27;1.60;;;1.00;;
23260;SDS011;11799;47.740;-3.390;2024-01-30T03:50:53;2.50;;;1.02;;
23260;SDS011;11799;47.740;-3.390;2024-01-30T03:53:19;2.25;;;1.20;;
23260;SDS011;11799;47.740;-3.390;2024-01-30T03:55:44;2.60;;;1.00;;
23260;SDS011;11799;47.740;-3.390;2024-01-30T03:58:10;3.47;;;1.33;;
23260;SDS011;11799;47.740;-3.390;2024-01-30T04:00:35;1.90;;;1.10;;
23260;SDS011;11799;47.740;-3.390;2024-01-30T04:03:01;2.38;;;1.30;;
23260;SDS011;11799;47.740;-3.390;2024-01-30T04:05:26;1.67;;;1.23;;
23260;SDS011;11799;47.740;-3.390;2024-01-30T04:07:52;4.22;;;1.15;;
23260;SDS011;11799;47.740;-3.390;2024-01-30T04:10:17;4.05;;;1.40;;
23260;SDS011;11799;47.740;-3.390;2024-01-30T04:12:43;2.08;;;1.10;;
23260;SDS011;11799;47.740;-3.390;2024-01-30T04:15:08;3.97;;;1.27;;
23260;SDS011;11799;47.740;-3.390;2024-01-30T04:17:34;2.42;;;1.40;;
23260;SDS011;11799;47.740;-3.390;2024-01-30T04:20:00;5.13;;;1.38;;
23260;SDS011;11799;47.740;-3.390;2024-01-30T04:22:25;2.75;;;1.20;;
23260;SDS011;11799;47.740;-3.390;2024-01-30T04:24:51;1.77;;;1.20;;
23260;SDS011;11799;47.740;-3.390;2024-01-30T04:27:16;4.95;;;1.30;;
23260;SDS011;11799;47.740;-3.390;2024-01-30T04:29:42;2.97;;;1.13;;
23260;SDS011;11799;47.740;-3.390;2024-01-30T04:32:08;3.72;;;1.25;;
23260;SDS011;11799;47.740;-3.390;2024-01-30T04:34:36;4.32;;;1.40;;
23260;SDS011;11799;47.740;-3.390;2024-01-30T04:37:02;2.35;;;1.20;;
23260;SDS011;11799;47.740;-3.390;2024-01-30T04:39:28;3.88;;;1.60;;
23260;SDS011;11799;47.740;-3.390;2024-01-30T04:41:53;3.25;;;1.30;;
23260;SDS011;11799;47.740;-3.390;2024-01-30T04:44:19;3.97;;;1.58;;
23260;SDS011;11799;47.740;-3.390;2024-01-30T04:46:44;2.20;;;2.00;;
23260;SDS011;11799;47.740;-3.390;2024-01-30T04:49:10;4.68;;;2.10;;
23260;SDS011;11799;47.740;-3.390;2024-01-30T04:51:36;3.42;;;2.00;;
23260;SDS011;11799;47.740;-3.390;2024-01-30T04:54:01;2.65;;;1.98;;
23260;SDS011;11799;47.740;-3.390;2024-01-30T04:56:27;5.25;;;2.25;;
23260;SDS011;11799;47.740;-3.390;2024-01-30T04:58:52;3.90;;;2.08;;
23260;SDS011;11799;47.740;-3.390;2024-01-30T05:01:18;5.68;;;2.70;;
23260;SDS011;11799;47.740;-3.390;2024-01-30T05:03:44;3.58;;;2.50;;
23260;SDS011;11799;47.740;-3.390;2024-01-30T05:06:09;4.22;;;2.50;;
23260;SDS011;11799;47.740;-3.390;2024-01-30T05:08:35;7.03;;;3.00;;
23260;SDS011;11799;47.740;-3.390;2024-01-30T05:11:05;5.82;;;2.55;;
23260;SDS011;11799;47.740;-3.390;2024-01-30T05:13:30;4.93;;;2.50;;
23260;SDS011;11799;47.740;-3.390;2024-01-30T05:15:56;4.10;;;2.92;;
23260;SDS011;11799;47.740;-3.390;2024-01-30T05:18:22;5.93;;;2.80;;
23260;SDS011;11799;47.740;-3.390;2024-01-30T05:20:49;6.15;;;2.88;;
23260;SDS011;11799;47.740;-3.390;2024-01-30T05:23:15;5.30;;;3.30;;
23260;SDS011;11799;47.740;-3.390;2024-01-30T05:25:41;7.38;;;3.40;;
23260;SDS011;11799;47.740;-3.390;2024-01-30T05:28:07;6.75;;;3.40;;
23260;SDS011;11799;47.740;-3.390;2024-01-30T05:30:33;4.57;;;3.38;;
23260;SDS011;11799;47.740;-3.390;2024-01-30T05:32:58;4.38;;;3.97;;
23260;SDS011;11799;47.740;-3.390;2024-01-30T05:35:24;4.43;;;3.72;;
23260;SDS011;11799;47.740;-3.390;2024-01-30T05:37:49;5.05;;;3.97;;
23260;SDS011;11799;47.740;-3.390;2024-01-30T05:40:15;5.18;;;3.53;;
23260;SDS011;11799;47.740;-3.390;2024-01-30T05:42:41;3.72;;;3.42;;
23260;SDS011;11799;47.740;-3.390;2024-01-30T05:45:07;5.07;;;3.78;;
23260;SDS011;11799;47.740;-3.390;2024-01-30T05:47:34;5.53;;;3.80;;
23260;SDS011;11799;47.740;-3.390;2024-01-30T05:49:59;5.05;;;3.63;;
23260;SDS011;11799;47.740;-3.390;2024-01-30T05:52:25;4.10;;;3.67;;
23260;SDS011;11799;47.740;-3.390;2024-01-30T05:54:51;7.78;;;4.10;;
23260;SDS011;11799;47.740;-3.390;2024-01-30T05:57:16;5.63;;;4.13;;
23260;SDS011;11799;47.740;-3.390;2024-01-30T05:59:42;8.55;;;5.93;;
23260;SDS011;11799;47.740;-3.390;2024-01-30T06:02:10;4.22;;;3.70;;
23260;SDS011;11799;47.740;-3.390;2024-01-30T06:04:36;5.15;;;3.80;;
23260;SDS011;11799;47.740;-3.390;2024-01-30T06:07:01;7.68;;;3.78;;
23260;SDS011;11799;47.740;-3.390;2024-01-30T06:09:27;9.00;;;3.67;;
23260;SDS011;11799;47.740;-3.390;2024-01-30T06:11:54;5.57;;;3.50;;
23260;SDS011;11799;47.740;-3.390;2024-01-30T06:14:20;6.68;;;3.30;;
23260;SDS011;11799;47.740;-3.390;2024-01-30T06:16:46;6.28;;;3.47;;
23260;SDS011;11799;47.740;-3.390;2024-01-30T06:19:11;4.45;;;3.45;;
23260;SDS011;11799;47.740;-3.390;2024-01-30T06:21:37;4.38;;;3.15;;
23260;SDS011;11799;47.740;-3.390;2024-01-30T06:24:03;6.32;;;3.47;;
23260;SDS011;11799;47.740;-3.390;2024-01-30T06:26:29;5.65;;;3.13;;
23260;SDS011;11799;47.740;-3.390;2024-01-30T06:28:55;5.13;;;3.35;;
23260;SDS011;11799;47.740;-3.390;2024-01-30T06:31:20;5.03;;;3.47;;
23260;SDS011;11799;47.740;-3.390;2024-01-30T06:33:47;4.85;;;3.30;;
23260;SDS011;11799;47.740;-3.390;2024-01-30T06:36:12;3.78;;;3.35;;
23260;SDS011;11799;47.740;-3.390;2024-01-30T06:38:39;4.25;;;3.60;;
23260;SDS011;11799;47.740;-3.390;2024-01-30T06:41:04;4.82;;;3.65;;
23260;SDS011;11799;47.740;-3.390;2024-01-30T06:43:30;7.45;;;4.55;;
23260;SDS011;11799;47.740;-3.390;2024-01-30T06:45:55;4.72;;;4.20;;
23260;SDS011;11799;47.740;-3.390;2024-01-30T06:48:21;5.90;;;4.00;;
23260;SDS011;11799;47.740;-3.390;2024-01-30T06:50:46;7.47;;;4.35;;
23260;SDS011;11799;47.740;-3.390;2024-01-30T06:53:13;8.13;;;5.18;;
23260;SDS011;11799;47.740;-3.390;2024-01-30T06:55:38;8.25;;;4.13;;
23260;SDS011;11799;47.740;-3.390;2024-01-30T06:58:04;11.13;;;5.75;;
23260;SDS011;11799;47.740;-3.390;2024-01-30T07:00:29;8.15;;;5.50;;
23260;SDS011;11799;47.740;-3.390;2024-01-30T07:02:55;9.20;;;5.82;;
23260;SDS011;11799;47.740;-3.390;2024-01-30T07:05:21;5.55;;;4.65;;
23260;SDS011;11799;47.740;-3.390;2024-01-30T07:07:47;6.35;;;5.13;;
23260;SDS011;11799;47.740;-3.390;2024-01-30T07:10:12;8.85;;;5.03;;
23260;SDS011;11799;47.740;-3.390;2024-01-30T07:12:38;7.10;;;5.20;;
23260;SDS011;11799;47.740;-3.390;2024-01-30T07:15:04;6.75;;;4.85;;
23260;SDS011;11799;47.740;-3.390;2024-01-30T07:17:33;6.37;;;4.80;;
23260;SDS011;11799;47.740;-3.390;2024-01-30T07:19:59;7.43;;;5.22;;
23260;SDS011;11799;47.740;-3.390;2024-01-30T07:22:25;5.90;;;4.93;;
23260;SDS011;11799;47.740;-3.390;2024-01-30T07:24:50;6.95;;;5.13;;
23260;SDS011;11799;47.740;-3.390;2024-01-30T07:27:17;9.00;;;6.32;;
23260;SDS011;11799;47.740;-3.390;2024-01-30T07:29:43;10.70;;;5.63;;
23260;SDS011;11799;47.740;-3.390;2024-01-30T07:32:09;9.25;;;5.93;;
23260;SDS011;11799;47.740;-3.390;2024-01-30T07:34:34;10.40;;;6.20;;
23260;SDS011;11799;47.740;-3.390;2024-01-30T07:37:01;11.35;;;6.53;;
23260;SDS011;11799;47.740;-3.390;2024-01-30T07:39:27;13.68;;;7.95;;
23260;SDS011;11799;47.740;-3.390;2024-01-30T07:41:53;10.60;;;7.55;;
23260;SDS011;11799;47.740;-3.390;2024-01-30T07:44:18;13.40;;;7.35;;
23260;SDS011;11799;47.740;-3.390;2024-01-30T07:46:44;13.13;;;8.75;;
23260;SDS011;11799;47.740;-3.390;2024-01-30T07:49:10;11.93;;;8.60;;
23260;SDS011;11799;47.740;-3.390;2024-01-30T07:51:35;13.57;;;9.65;;
23260;SDS011;11799;47.740;-3.390;2024-01-30T07:54:01;11.10;;;8.93;;
23260;SDS011;11799;47.740;-3.390;2024-01-30T07:56:26;13.63;;;9.88;;
23260;SDS011;11799;47.740;-3.390;2024-01-30T07:58:52;12.45;;;9.93;;
23260;SDS011;11799;47.740;-3.390;2024-01-30T08:01:18;13.23;;;10.40;;
23260;SDS011;11799;47.740;-3.390;2024-01-30T08:03:44;18.38;;;11.48;;
23260;SDS011;11799;47.740;-3.390;2024-01-30T08:06:09;14.15;;;10.00;;
23260;SDS011;11799;47.740;-3.390;2024-01-30T08:08:35;12.27;;;10.23;;
23260;SDS011;11799;47.740;-3.390;2024-01-30T08:11:00;12.43;;;10.50;;
23260;SDS011;11799;47.740;-3.390;2024-01-30T08:13:26;13.98;;;10.93;;
23260;SDS011;11799;47.740;-3.390;2024-01-30T08:15:52;14.18;;;10.48;;
23260;SDS011;11799;47.740;-3.390;2024-01-30T08:18:18;15.02;;;10.20;;
23260;SDS011;11799;47.740;-3.390;2024-01-30T08:20:43;13.35;;;10.23;;
23260;SDS011;11799;47.740;-3.390;2024-01-30T08:23:09;16.58;;;10.35;;
23260;SDS011;11799;47.740;-3.390;2024-01-30T08:25:35;11.55;;;9.77;;
23260;SDS011;11799;47.740;-3.390;2024-01-30T08:28:01;11.65;;;10.00;;
23260;SDS011;11799;47.740;-3.390;2024-01-30T08:30:27;11.65;;;9.48;;
23260;SDS011;11799;47.740;-3.390;2024-01-30T08:32:53;14.00;;;9.50;;
23260;SDS011;11799;47.740;-3.390;2024-01-30T08:35:18;11.07;;;9.25;;
23260;SDS011;11799;47.740;-3.390;2024-01-30T08:37:44;11.70;;;8.52;;
23260;SDS011;11799;47.740;-3.390;2024-01-30T08:40:09;13.48;;;10.43;;
23260;SDS011;11799;47.740;-3.390;2024-01-30T08:42:35;17.70;;;12.15;;
23260;SDS011;11799;47.740;-3.390;2024-01-30T08:45:00;18.20;;;12.15;;
23260;SDS011;11799;47.740;-3.390;2024-01-30T08:47:26;18.70;;;12.27;;
23260;SDS011;11799;47.740;-3.390;2024-01-30T08:49:52;14.77;;;9.80;;
23260;SDS011;11799;47.740;-3.390;2024-01-30T08:52:17;13.10;;;8.10;;
23260;SDS011;11799;47.740;-3.390;2024-01-30T08:54:43;16.42;;;7.00;;
23260;SDS011;11799;47.740;-3.390;2024-01-30T08:57:10;8.38;;;5.05;;
23260;SDS011;11799;47.740;-3.390;2024-01-30T08:59:35;11.90;;;4.80;;
23260;SDS011;11799;47.740;-3.390;2024-01-30T09:02:01;5.75;;;3.80;;
23260;SDS011;11799;47.740;-3.390;2024-01-30T09:04:26;6.90;;;4.43;;
23260;SDS011;11799;47.740;-3.390;2024-01-30T09:06:52;5.45;;;3.67;;
23260;SDS011;11799;47.740;-3.390;2024-01-30T09:09:17;9.35;;;3.60;;
23260;SDS011;11799;47.740;-3.390;2024-01-30T09:11:43;9.10;;;3.90;;
23260;SDS011;11799;47.740;-3.390;2024-01-30T09:14:09;4.88;;;3.08;;
23260;SDS011;11799;47.740;-3.390;2024-01-30T09:16:34;6.25;;;3.67;;
23260;SDS011;11799;47.740;-3.390;2024-01-30T09:19:00;4.55;;;3.38;;
23260;SDS011;11799;47.740;-3.390;2024-01-30T09:21:25;6.40;;;3.53;;
23260;SDS011;11799;47.740;-3.390;2024-01-30T09:23:53;6.70;;;4.25;;
23260;SDS011;11799;47.740;-3.390;2024-01-30T09:26:19;10.60;;;4.80;;
23260;SDS011;11799;47.740;-3.390;2024-01-30T09:28:45;34.28;;;7.20;;
23260;SDS011;11799;47.740;-3.390;2024-01-30T09:31:11;16.83;;;4.30;;
23260;SDS011;11799;47.740;-3.390;2024-01-30T09:33:37;7.60;;;4.43;;
23260;SDS011;11799;47.740;-3.390;2024-01-30T09:36:04;7.85;;;4.45;;
23260;SDS011;11799;47.740;-3.390;2024-01-30T09:38:31;7.22;;;4.30;;
23260;SDS011;11799;47.740;-3.390;2024-01-30T09:40:56;12.77;;;4.35;;
23260;SDS011;11799;47.740;-3.390;2024-01-30T09:43:29;16.60;;;4.15;;
23260;SDS011;11799;47.740;-3.390;2024-01-30T09:45:59;7.40;;;3.60;;
23260;SDS011;11799;47.740;-3.390;2024-01-30T09:48:28;9.70;;;3.90;;
23260;SDS011;11799;47.740;-3.390;2024-01-30T09:50:55;6.03;;;3.40;;
23260;SDS011;11799;47.740;-3.390;2024-01-30T09:53:22;5.63;;;4.30;;
23260;SDS011;11799;47.740;-3.390;2024-01-30T09:55:48;5.03;;;3.72;;
23260;SDS011;11799;47.740;-3.390;2024-01-30T09:58:15;7.30;;;3.88;;
23260;SDS011;11799;47.740;-3.390;2024-01-30T10:00:42;5.20;;;3.63;;
23260;SDS011;11799;47.740;-3.390;2024-01-30T10:03:08;6.88;;;3.88;;
23260;SDS011;11799;47.740;-3.390;2024-01-30T10:05:34;9.80;;;4.63;;
23260;SDS011;11799;47.740;-3.390;2024-01-30T10:08:05;8.70;;;3.95;;
23260;SDS011;11799;47.740;-3.390;2024-01-30T10:10:31;5.78;;;3.75;;
23260;SDS011;11799;47.740;-3.390;2024-01-30T10:12:57;6.05;;;4.25;;
23260;SDS011;11799;47.740;-3.390;2024-01-30T10:15:22;4.60;;;3.30;;
23260;SDS011;11799;47.740;-3.390;2024-01-30T10:17:50;4.80;;;3.65;;
23260;SDS011;11799;47.740;-3.390;2024-01-30T10:20:16;7.00;;;4.55;;
23260;SDS011;11799;47.740;-3.390;2024-01-30T10:22:44;6.45;;;3.38;;
23260;SDS011;11799;47.740;-3.390;2024-01-30T10:25:11;3.28;;;2.95;;
23260;SDS011;11799;47.740;-3.390;2024-01-30T10:27:36;4.65;;;2.80;;
23260;SDS011;11799;47.740;-3.390;2024-01-30T10:30:02;4.28;;;2.55;;
23260;SDS011;11799;47.740;-3.390;2024-01-30T10:32:29;4.43;;;3.20;;
23260;SDS011;11799;47.740;-3.390;2024-01-30T10:34:54;3.05;;;2.63;;
23260;SDS011;11799;47.740;-3.390;2024-01-30T10:37:20;3.50;;;2.38;;
23260;SDS011;11799;47.740;-3.390;2024-01-30T10:39:50;3.63;;;2.90;;
23260;SDS011;11799;47.740;-3.390;2024-01-30T10:42:18;6.90;;;4.05;;
23260;SDS011;11799;47.740;-3.390;2024-01-30T10:45:00;3.20;;;2.72;;
23260;SDS011;11799;47.740;-3.390;2024-01-30T10:47:29;2.88;;;2.60;;
23260;SDS011;11799;47.740;-3.390;2024-01-30T10:49:55;5.25;;;2.95;;
23260;SDS011;11799;47.740;-3.390;2024-01-30T10:52:22;3.42;;;2.45;;
23260;SDS011;11799;47.740;-3.390;2024-01-30T10:54:53;5.78;;;2.63;;
23260;SDS011;11799;47.740;-3.390;2024-01-30T10:57:20;3.20;;;2.45;;
23260;SDS011;11799;47.740;-3.390;2024-01-30T10:59:48;4.20;;;2.88;;
23260;SDS011;11799;47.740;-3.390;2024-01-30T11:02:14;3.90;;;2.50;;
23260;SDS011;11799;47.740;-3.390;2024-01-30T11:04:41;4.80;;;2.50;;
23260;SDS011;11799;47.740;-3.390;2024-01-30T11:07:16;2.90;;;2.50;;
23260;SDS011;11799;47.740;-3.390;2024-01-30T11:09:49;4.57;;;2.55;;
23260;SDS011;11799;47.740;-3.390;2024-01-30T11:12:16;4.60;;;2.22;;
23260;SDS011;11799;47.740;-3.390;2024-01-30T11:14:41;3.92;;;2.30;;
23260;SDS011;11799;47.740;-3.390;2024-01-30T11:17:09;4.00;;;1.85;;
23260;SDS011;11799;47.740;-3.390;2024-01-30T11:19:37;4.45;;;1.85;;
23260;SDS011;11799;47.740;-3.390;2024-01-30T11:22:02;3.95;;;1.60;;
23260;SDS011;11799;47.740;-3.390;2024-01-30T11:24:29;1.85;;;1.52;;
23260;SDS011;11799;47.740;-3.390;2024-01-30T11:26:55;3.50;;;1.40;;
23260;SDS011;11799;47.740;-3.390;2024-01-30T11:29:27;10.88;;;1.70;;
23260;SDS011;11799;47.740;-3.390;2024-01-30T11:31:53;5.47;;;1.30;;
23260;SDS011;11799;47.740;-3.390;2024-01-30T11:34:20;2.05;;;1.10;;
23260;SDS011;11799;47.740;-3.390;2024-01-30T11:36:53;2.20;;;1.38;;
23260;SDS011;11799;47.740;-3.390;2024-01-30T11:39:31;2.53;;;1.05;;
23260;SDS011;11799;47.740;-3.390;2024-01-30T11:41:56;2.33;;;1.05;;
23260;SDS011;11799;47.740;-3.390;2024-01-30T11:44:23;1.65;;;1.00;;
23260;SDS011;11799;47.740;-3.390;2024-01-30T11:46:49;2.67;;;1.10;;
23260;SDS011;11799;47.740;-3.390;2024-01-30T11:49:16;2.53;;;0.88;;
23260;SDS011;11799;47.740;-3.390;2024-01-30T11:51:42;1.73;;;0.80;;
23260;SDS011;11799;47.740;-3.390;2024-01-30T11:54:10;0.60;;;0.60;;
23260;SDS011;11799;47.740;-3.390;2024-01-30T11:56:36;2.45;;;0.82;;
23260;SDS011;11799;47.740;-3.390;2024-01-30T11:59:04;1.70;;;0.60;;
23260;SDS011;11799;47.740;-3.390;2024-01-30T12:01:30;1.17;;;0.88;;
23260;SDS011;11799;47.740;-3.390;2024-01-30T12:03:57;1.83;;;0.80;;
23260;SDS011;11799;47.740;-3.390;2024-01-30T12:06:23;3.13;;;0.80;;
23260;SDS011;11799;47.740;-3.390;2024-01-30T12:08:59;2.00;;;0.90;;
23260;SDS011;11799;47.740;-3.390;2024-01-30T12:11:25;2.00;;;0.80;;
23260;SDS011;11799;47.740;-3.390;2024-01-30T12:13:52;0.90;;;0.60;;
23260;SDS011;11799;47.740;-3.390;2024-01-30T12:16:18;0.98;;;0.60;;
23260;SDS011;11799;47.740;-3.390;2024-01-30T12:18:44;0.75;;;0.75;;
23260;SDS011;11799;47.740;-3.390;2024-01-30T12:21:09;0.75;;;0.70;;
23260;SDS011;11799;47.740;-3.390;2024-01-30T12:23:35;1.00;;;0.65;;
23260;SDS011;11799;47.740;-3.390;2024-01-30T12:26:01;0.80;;;0.80;;
23260;SDS011;11799;47.740;-3.390;2024-01-30T12:28:32;1.40;;;0.80;;
23260;SDS011;11799;47.740;-3.390;2024-01-30T12:31:02;1.55;;;0.65;;
23260;SDS011;11799;47.740;-3.390;2024-01-30T12:33:28;0.60;;;0.60;;
23260;SDS011;11799;47.740;-3.390;2024-01-30T12:35:55;5.13;;;0.80;;
23260;SDS011;11799;47.740;-3.390;2024-01-30T12:38:22;2.25;;;0.60;;
23260;SDS011;11799;47.740;-3.390;2024-01-30T12:40:49;2.70;;;0.73;;
23260;SDS011;11799;47.740;-3.390;2024-01-30T12:43:14;3.00;;;0.80;;
23260;SDS011;11799;47.740;-3.390;2024-01-30T12:45:41;1.15;;;0.63;;
23260;SDS011;11799;47.740;-3.390;2024-01-30T12:48:07;0.60;;;0.60;;
23260;SDS011;11799;47.740;-3.390;2024-01-30T12:50:33;3.95;;;1.02;;
23260;SDS011;11799;47.740;-3.390;2024-01-30T12:52:59;1.92;;;0.77;;
23260;SDS011;11799;47.740;-3.390;2024-01-30T12:55:25;0.73;;;0.70;;
23260;SDS011;11799;47.740;-3.390;2024-01-30T12:57:53;2.20;;;0.63;;
23260;SDS011;11799;47.740;-3.390;2024-01-30T13:00:20;1.27;;;0.60;;
23260;SDS011;11799;47.740;-3.390;2024-01-30T13:02:45;1.85;;;0.63;;
23260;SDS011;11799;47.740;-3.390;2024-01-30T13:05:12;1.08;;;0.60;;
23260;SDS011;11799;47.740;-3.390;2024-01-30T13:07:38;0.80;;;0.70;;
23260;SDS011;11799;47.740;-3.390;2024-01-30T13:10:04;1.25;;;0.70;;
23260;SDS011;11799;47.740;-3.390;2024-01-30T13:12:30;1.30;;;0.60;;
23260;SDS011;11799;47.740;-3.390;2024-01-30T13:14:57;2.08;;;0.70;;
23260;SDS011;11799;47.740;-3.390;2024-01-30T13:17:23;1.20;;;0.70;;
23260;SDS011;11799;47.740;-3.390;2024-01-30T13:19:48;1.95;;;0.85;;
23260;SDS011;11799;47.740;-3.390;2024-01-30T13:22:14;1.75;;;0.82;;
23260;SDS011;11799;47.740;-3.390;2024-01-30T13:24:40;1.80;;;0.80;;
23260;SDS011;11799;47.740;-3.390;2024-01-30T13:27:07;2.25;;;0.82;;
23260;SDS011;11799;47.740;-3.390;2024-01-30T13:29:32;0.73;;;0.73;;
23260;SDS011;11799;47.740;-3.390;2024-01-30T13:31:58;2.08;;;0.85;;
23260;SDS011;11799;47.740;-3.390;2024-01-30T13:34:23;1.48;;;0.80;;
23260;SDS011;11799;47.740;-3.390;2024-01-30T13:36:50;2.92;;;0.90;;
23260;SDS011;11799;47.740;-3.390;2024-01-30T13:39:15;1.30;;;0.80;;
23260;SDS011;11799;47.740;-3.390;2024-01-30T13:41:41;2.05;;;1.02;;
23260;SDS011;11799;47.740;-3.390;2024-01-30T13:44:07;0.73;;;0.70;;
23260;SDS011;11799;47.740;-3.390;2024-01-30T13:46:34;1.60;;;0.73;;
23260;SDS011;11799;47.740;-3.390;2024-01-30T13:49:01;1.02;;;0.70;;
23260;SDS011;11799;47.740;-3.390;2024-01-30T13:51:27;1.42;;;0.80;;
23260;SDS011;11799;47.740;-3.390;2024-01-30T13:53:53;2.15;;;0.90;;
23260;SDS011;11799;47.740;-3.390;2024-01-30T13:56:21;1.05;;;0.70;;
23260;SDS011;11799;47.740;-3.390;2024-01-30T13:58:50;1.83;;;0.90;;
23260;SDS011;11799;47.740;-3.390;2024-01-30T14:01:16;2.17;;;0.95;;
23260;SDS011;11799;47.740;-3.390;2024-01-30T14:03:41;1.75;;;0.70;;
23260;SDS011;11799;47.740;-3.390;2024-01-30T14:06:07;2.25;;;0.90;;
23260;SDS011;11799;47.740;-3.390;2024-01-30T14:08:33;2.63;;;0.80;;
23260;SDS011;11799;47.740;-3.390;2024-01-30T14:10:58;0.93;;;0.70;;
23260;SDS011;11799;47.740;-3.390;2024-01-30T14:13:24;1.20;;;0.90;;
23260;SDS011;11799;47.740;-3.390;2024-01-30T14:15:51;1.17;;;0.75;;
23260;SDS011;11799;47.740;-3.390;2024-01-30T14:18:17;1.02;;;0.70;;
23260;SDS011;11799;47.740;-3.390;2024-01-30T14:20:42;1.95;;;0.90;;
23260;SDS011;11799;47.740;-3.390;2024-01-30T14:23:08;1.05;;;0.90;;
23260;SDS011;11799;47.740;-3.390;2024-01-30T14:25:33;1.58;;;0.90;;
23260;SDS011;11799;47.740;-3.390;2024-01-30T14:27:59;1.17;;;0.95;;